Time;durP1;ratioP1;P1;durP2;ratioP2;P2;SDS_P1;SDS_P2;PMS_P1;PMS_P2;Temp;Humidity;BMP_temperature;BMP_pressure;BME280_temperature;BME280_humidity;BME280_pressure;Samples;Min_cycle;Max_cycle;Signal;HPM_P1;HPM_P2
2022/07/05 00:01:10;;;;;;;1.70;1.60;;;;;;;;;;4932826;29;20424;-80
2022/07/05 00:03:36;;;;;;;2.53;1.60;;;;;;;;;;4929592;29;20502;-74
2022/07/05 00:06:02;;;;;;;1.23;1.23;;;;;;;;;;4930928;29;20427;-75
2022/07/05 00:08:28;;;;;;;1.30;1.23;;;;;;;;;;4931324;29;20928;-75
2022/07/05 00:10:54;;;;;;;1.00;1.00;;;;;;;;;;4932878;29;20831;-79
2022/07/05 00:13:20;;;;;;;6.67;1.17;;;;;;;;;;4932273;29;20427;-79
2022/07/05 00:15:46;;;;;;;6.37;1.50;;;;;;;;;;4930870;29;20530;-80
2022/07/05 00:18:12;;;;;;;1.50;1.33;;;;;;;;;;4932878;29;20934;-80
2022/07/05 00:20:38;;;;;;;1.57;1.50;;;;;;;;;;4931536;29;20444;-79
2022/07/05 00:23:04;;;;;;;1.53;1.53;;;;;;;;;;4932771;29;20431;-79
2022/07/05 00:25:30;;;;;;;1.23;1.23;;;;;;;;;;4930694;29;20442;-76
2022/07/05 00:27:56;;;;;;;1.10;1.10;;;;;;;;;;4930319;29;20967;-77
2022/07/05 00:30:22;;;;;;;2.10;1.70;;;;;;;;;;4932662;29;20527;-78
2022/07/05 00:32:48;;;;;;;2.63;1.47;;;;;;;;;;4931788;29;20846;-78
2022/07/05 00:35:14;;;;;;;3.70;1.93;;;;;;;;;;4931314;29;20440;-81
2022/07/05 00:37:40;;;;;;;2.00;1.30;;;;;;;;;;4931666;29;20538;-76
2022/07/05 00:40:07;;;;;;;7.20;2.23;;;;;;;;;;4929537;29;20485;-78
2022/07/05 00:42:33;;;;;;;1.20;1.20;;;;;;;;;;4931263;29;21081;-78
2022/07/05 00:44:59;;;;;;;1.50;1.50;;;;;;;;;;4930248;29;20435;-79
2022/07/05 00:47:25;;;;;;;1.00;0.93;;;;;;;;;;4931728;29;20807;-76
2022/07/05 00:49:51;;;;;;;3.63;1.40;;;;;;;;;;4931282;29;20499;-74
2022/07/05 00:52:17;;;;;;;6.63;1.60;;;;;;;;;;4930265;29;20845;-78
2022/07/05 00:54:43;;;;;;;1.30;1.30;;;;;;;;;;4930478;29;20980;-78
2022/07/05 00:57:09;;;;;;;1.40;1.30;;;;;;;;;;4933150;29;20479;-75
2022/07/05 00:59:35;;;;;;;1.30;1.30;;;;;;;;;;4935162;29;20551;-77
2022/07/05 01:02:01;;;;;;;2.07;2.07;;;;;;;;;;4933842;29;20436;-76
2022/07/05 01:04:27;;;;;;;2.30;1.83;;;;;;;;;;4934615;29;20447;-78
2022/07/05 01:06:54;;;;;;;1.30;1.20;;;;;;;;;;4935123;29;20446;-78
2022/07/05 01:09:20;;;;;;;1.20;1.20;;;;;;;;;;4931083;29;20490;-74
2022/07/05 01:11:47;;;;;;;1.77;1.77;;;;;;;;;;4934585;29;20439;-74
2022/07/05 01:14:13;;;;;;;1.53;1.40;;;;;;;;;;4935350;29;20454;-78
2022/07/05 01:16:39;;;;;;;2.27;1.47;;;;;;;;;;4934847;29;20483;-79
2022/07/05 01:19:06;;;;;;;1.87;1.87;;;;;;;;;;4934822;29;20491;-75
2022/07/05 01:21:33;;;;;;;1.93;1.80;;;;;;;;;;4934204;29;20462;-78
2022/07/05 01:24:00;;;;;;;2.47;2.27;;;;;;;;;;4935456;29;20432;-74
2022/07/05 01:26:26;;;;;;;2.67;1.20;;;;;;;;;;4932483;29;20439;-77
2022/07/05 01:28:52;;;;;;;1.13;1.13;;;;;;;;;;4935257;29;20443;-77
2022/07/05 01:31:18;;;;;;;1.50;1.43;;;;;;;;;;4932551;29;20951;-75
2022/07/05 01:33:44;;;;;;;4.23;1.70;;;;;;;;;;4933462;29;20551;-78
2022/07/05 01:36:11;;;;;;;2.73;2.43;;;;;;;;;;4932058;29;20462;-75
2022/07/05 01:38:37;;;;;;;1.90;1.80;;;;;;;;;;4933300;29;20487;-74
2022/07/05 01:41:03;;;;;;;2.77;1.80;;;;;;;;;;4935066;29;20580;-76
2022/07/05 01:43:29;;;;;;;3.27;1.87;;;;;;;;;;4934078;29;20521;-75
2022/07/05 01:45:57;;;;;;;2.50;1.30;;;;;;;;;;4934560;29;20924;-74
2022/07/05 01:48:23;;;;;;;1.40;1.30;;;;;;;;;;4934922;29;20444;-72
2022/07/05 01:50:54;;;;;;;1.23;1.23;;;;;;;;;;4934998;29;20423;-72
2022/07/05 01:53:22;;;;;;;12.03;2.90;;;;;;;;;;4933856;29;20485;-73
2022/07/05 01:55:48;;;;;;;6.13;2.37;;;;;;;;;;4933230;29;20798;-76
2022/07/05 01:58:14;;;;;;;2.40;1.30;;;;;;;;;;4934062;29;20828;-78
2022/07/05 02:00:47;;;;;;;1.60;1.37;;;;;;;;;;4934009;29;20948;-72
2022/07/05 02:03:14;;;;;;;1.23;1.10;;;;;;;;;;4934823;29;20462;-74
2022/07/05 02:05:41;;;;;;;1.20;1.20;;;;;;;;;;4932932;29;20926;-72
2022/07/05 02:08:07;;;;;;;1.47;1.37;;;;;;;;;;4933403;29;20539;-73
2022/07/05 02:10:33;;;;;;;1.63;1.50;;;;;;;;;;4932875;29;20935;-74
2022/07/05 02:12:58;;;;;;;1.20;1.20;;;;;;;;;;4934787;29;20428;-78
2022/07/05 02:15:24;;;;;;;2.10;1.70;;;;;;;;;;4933868;29;20424;-73
2022/07/05 02:17:50;;;;;;;8.17;1.90;;;;;;;;;;4934650;29;20494;-73
2022/07/05 02:20:16;;;;;;;1.67;1.60;;;;;;;;;;4933572;29;20431;-73
2022/07/05 02:22:42;;;;;;;1.37;1.27;;;;;;;;;;4932427;29;20448;-77
2022/07/05 02:25:08;;;;;;;1.30;1.30;;;;;;;;;;4934055;29;20427;-75
2022/07/05 02:27:34;;;;;;;3.67;1.80;;;;;;;;;;4931563;29;20458;-76
2022/07/05 02:30:01;;;;;;;4.23;1.40;;;;;;;;;;4933845;29;20913;-77
2022/07/05 02:32:27;;;;;;;4.20;1.23;;;;;;;;;;4930213;29;20579;-76
2022/07/05 02:34:53;;;;;;;5.80;1.43;;;;;;;;;;4931590;29;20991;-73
2022/07/05 02:37:19;;;;;;;2.20;1.30;;;;;;;;;;4930386;29;20495;-73
2022/07/05 02:39:45;;;;;;;1.57;1.50;;;;;;;;;;4930929;29;20442;-77
2022/07/05 02:42:11;;;;;;;5.23;1.13;;;;;;;;;;4934371;29;20431;-75
2022/07/05 02:44:37;;;;;;;1.13;1.13;;;;;;;;;;4932839;29;20454;-72
2022/07/05 02:47:03;;;;;;;1.43;1.33;;;;;;;;;;4929543;29;21046;-71
2022/07/05 02:49:29;;;;;;;1.00;1.00;;;;;;;;;;4932630;29;20439;-71
2022/07/05 02:51:55;;;;;;;1.50;1.40;;;;;;;;;;4933810;29;20444;-78
2022/07/05 02:54:21;;;;;;;1.47;1.47;;;;;;;;;;4931308;29;20444;-72
2022/07/05 02:56:47;;;;;;;2.83;2.73;;;;;;;;;;4931939;29;20479;-78
2022/07/05 02:59:13;;;;;;;1.10;1.10;;;;;;;;;;4931441;29;21017;-73
2022/07/05 03:01:39;;;;;;;2.90;1.30;;;;;;;;;;4933202;29;20436;-72
2022/07/05 03:04:06;;;;;;;1.80;1.80;;;;;;;;;;4933797;29;20436;-72
2022/07/05 03:06:32;;;;;;;3.43;1.30;;;;;;;;;;4929948;29;20996;-72
2022/07/05 03:08:58;;;;;;;3.63;1.40;;;;;;;;;;4931626;29;20530;-72
2022/07/05 03:11:24;;;;;;;1.70;1.60;;;;;;;;;;4932029;29;20442;-72
2022/07/05 03:13:50;;;;;;;3.00;1.40;;;;;;;;;;4926475;29;20931;-72
2022/07/05 03:16:16;;;;;;;2.20;1.33;;;;;;;;;;4915664;29;20435;-72
2022/07/05 03:18:42;;;;;;;1.30;1.30;;;;;;;;;;4933361;29;20531;-73
2022/07/05 03:21:08;;;;;;;2.00;1.60;;;;;;;;;;4929974;29;20467;-73
2022/07/05 03:23:34;;;;;;;1.63;1.50;;;;;;;;;;4927948;29;20199;-72
2022/07/05 03:26:00;;;;;;;1.90;1.40;;;;;;;;;;4930847;29;20991;-71
2022/07/05 03:28:25;;;;;;;1.63;1.63;;;;;;;;;;4932849;29;20419;-72
2022/07/05 03:30:51;;;;;;;2.87;1.63;;;;;;;;;;4933619;29;20783;-73
2022/07/05 03:33:17;;;;;;;4.20;0.97;;;;;;;;;;4928629;29;20440;-72
2022/07/05 03:35:43;;;;;;;1.43;1.43;;;;;;;;;;4928497;29;20476;-73
2022/07/05 03:38:09;;;;;;;1.93;1.83;;;;;;;;;;4928444;29;20550;-73
2022/07/05 03:40:35;;;;;;;1.70;1.70;;;;;;;;;;4929091;29;20431;-72
2022/07/05 03:43:01;;;;;;;1.73;1.63;;;;;;;;;;4930525;29;20444;-73
2022/07/05 03:45:27;;;;;;;1.40;1.30;;;;;;;;;;4929777;29;20472;-73
2022/07/05 03:47:53;;;;;;;1.70;1.70;;;;;;;;;;4931937;29;20459;-72
2022/07/05 03:50:19;;;;;;;1.93;1.50;;;;;;;;;;4928702;29;20451;-72
2022/07/05 03:52:45;;;;;;;2.83;1.90;;;;;;;;;;4931634;29;20455;-78
2022/07/05 03:55:11;;;;;;;1.10;1.10;;;;;;;;;;4930205;29;20551;-72
2022/07/05 03:57:37;;;;;;;5.57;2.60;;;;;;;;;;4933179;29;20483;-74
2022/07/05 04:00:03;;;;;;;5.93;1.93;;;;;;;;;;4932936;29;20920;-72
2022/07/05 04:02:29;;;;;;;1.33;1.33;;;;;;;;;;4928618;29;20507;-72
2022/07/05 04:04:55;;;;;;;1.50;1.50;;;;;;;;;;4930484;29;20928;-73
2022/07/05 04:07:21;;;;;;;0.90;0.90;;;;;;;;;;4931770;29;20794;-76
2022/07/05 04:09:47;;;;;;;6.20;1.73;;;;;;;;;;4932178;29;20428;-79
2022/07/05 04:12:13;;;;;;;1.43;1.40;;;;;;;;;;4930644;29;20447;-73
2022/07/05 04:14:39;;;;;;;1.93;1.83;;;;;;;;;;4927429;29;20432;-72
2022/07/05 04:17:05;;;;;;;1.50;1.50;;;;;;;;;;4930867;29;20556;-73
2022/07/05 04:19:31;;;;;;;1.73;1.73;;;;;;;;;;4930626;29;20507;-74
2022/07/05 04:21:57;;;;;;;2.77;2.67;;;;;;;;;;4930511;29;20444;-76
2022/07/05 04:24:23;;;;;;;5.60;2.50;;;;;;;;;;4929645;29;20191;-75
2022/07/05 04:26:49;;;;;;;1.73;1.63;;;;;;;;;;4930852;29;20436;-75
2022/07/05 04:29:15;;;;;;;6.70;2.17;;;;;;;;;;4931980;29;20442;-72
2022/07/05 04:31:41;;;;;;;3.60;2.13;;;;;;;;;;4932124;29;20950;-73
2022/07/05 04:34:07;;;;;;;5.30;1.73;;;;;;;;;;4924043;29;20878;-73
2022/07/05 04:36:33;;;;;;;1.63;1.53;;;;;;;;;;4929037;29;20562;-74
2022/07/05 04:38:59;;;;;;;1.63;1.63;;;;;;;;;;4930081;29;20570;-75
2022/07/05 04:41:25;;;;;;;7.30;3.50;;;;;;;;;;4930451;29;20435;-73
2022/07/05 04:43:51;;;;;;;1.90;1.90;;;;;;;;;;4930798;29;20883;-75
2022/07/05 04:46:17;;;;;;;1.43;1.43;;;;;;;;;;4929340;29;20454;-78
2022/07/05 04:48:43;;;;;;;1.83;1.60;;;;;;;;;;4932024;29;20436;-75
2022/07/05 04:51:09;;;;;;;7.40;2.00;;;;;;;;;;4931393;29;20963;-74
2022/07/05 04:53:35;;;;;;;3.17;3.07;;;;;;;;;;4928437;29;20435;-76
2022/07/05 04:56:01;;;;;;;2.40;2.30;;;;;;;;;;4931774;29;20454;-79
2022/07/05 04:58:27;;;;;;;1.50;1.50;;;;;;;;;;4930440;29;20498;-75
2022/07/05 05:00:53;;;;;;;4.97;1.77;;;;;;;;;;4927440;29;20440;-80
2022/07/05 05:03:20;;;;;;;1.50;1.50;;;;;;;;;;4929006;29;20420;-77
2022/07/05 05:05:46;;;;;;;1.87;1.87;;;;;;;;;;4926011;29;20446;-81
2022/07/05 05:08:12;;;;;;;1.50;1.50;;;;;;;;;;4930697;29;20431;-80
2022/07/05 05:10:38;;;;;;;2.07;1.93;;;;;;;;;;4925499;29;20523;-77
2022/07/05 05:13:04;;;;;;;3.97;3.77;;;;;;;;;;4927676;29;20427;-75
2022/07/05 05:15:30;;;;;;;1.60;1.60;;;;;;;;;;4925333;29;20444;-74
2022/07/05 05:17:56;;;;;;;2.63;1.97;;;;;;;;;;4928233;29;20496;-75
2022/07/05 05:20:22;;;;;;;1.93;1.70;;;;;;;;;;4928099;29;20435;-72
2022/07/05 05:22:48;;;;;;;2.70;1.70;;;;;;;;;;4927414;29;20956;-77
2022/07/05 05:25:14;;;;;;;1.57;1.57;;;;;;;;;;4925896;29;20435;-72
2022/07/05 05:27:41;;;;;;;2.20;2.10;;;;;;;;;;4926894;29;20446;-76
2022/07/05 05:30:07;;;;;;;5.00;2.57;;;;;;;;;;4928086;29;20462;-81
2022/07/05 05:32:33;;;;;;;2.30;1.50;;;;;;;;;;4929599;29;20447;-75
2022/07/05 05:34:59;;;;;;;2.87;1.83;;;;;;;;;;4926843;29;20424;-81
2022/07/05 05:37:25;;;;;;;11.03;1.80;;;;;;;;;;4929246;29;20487;-80
2022/07/05 05:39:51;;;;;;;3.27;2.77;;;;;;;;;;4929408;29;20530;-79
2022/07/05 05:42:17;;;;;;;1.30;1.30;;;;;;;;;;4928670;29;20447;-81
2022/07/05 05:44:43;;;;;;;7.57;2.63;;;;;;;;;;4932132;29;20192;-79
2022/07/05 05:47:09;;;;;;;3.40;2.17;;;;;;;;;;4933264;29;20490;-79
2022/07/05 05:49:35;;;;;;;2.20;2.10;;;;;;;;;;4931140;29;20443;-78
2022/07/05 05:52:01;;;;;;;6.33;1.97;;;;;;;;;;4933199;29;20455;-80
2022/07/05 05:54:27;;;;;;;2.43;1.90;;;;;;;;;;4929025;29;20879;-79
2022/07/05 05:56:53;;;;;;;1.70;1.70;;;;;;;;;;4926098;29;20486;-80
2022/07/05 05:59:18;;;;;;;4.63;2.13;;;;;;;;;;4928063;29;20448;-76
2022/07/05 06:01:44;;;;;;;3.23;1.70;;;;;;;;;;4933691;29;20462;-79
2022/07/05 06:04:10;;;;;;;2.57;1.80;;;;;;;;;;4931256;29;20479;-81
2022/07/05 06:06:36;;;;;;;1.70;1.60;;;;;;;;;;4932174;29;20439;-76
2022/07/05 06:09:02;;;;;;;3.07;1.80;;;;;;;;;;4932732;29;20444;-71
2022/07/05 06:11:28;;;;;;;2.57;2.33;;;;;;;;;;4933598;29;20443;-80
2022/07/05 06:13:54;;;;;;;3.90;1.90;;;;;;;;;;4930833;29;20971;-79
2022/07/05 06:16:20;;;;;;;2.77;1.30;;;;;;;;;;4930838;29;20486;-75
2022/07/05 06:18:46;;;;;;;2.73;1.57;;;;;;;;;;4932392;29;20448;-73
2022/07/05 06:21:12;;;;;;;1.50;1.50;;;;;;;;;;4930880;29;20199;-73
2022/07/05 06:23:38;;;;;;;11.20;2.13;;;;;;;;;;4932534;29;20282;-78
2022/07/05 06:26:04;;;;;;;4.20;1.40;;;;;;;;;;4934384;29;20439;-72
2022/07/05 06:28:31;;;;;;;1.10;1.10;;;;;;;;;;4929840;29;20442;-79
2022/07/05 06:30:57;;;;;;;2.73;1.70;;;;;;;;;;4927614;29;20494;-75
2022/07/05 06:33:23;;;;;;;3.23;1.40;;;;;;;;;;4927809;29;20531;-80
2022/07/05 06:35:49;;;;;;;1.20;1.17;;;;;;;;;;4932965;29;20491;-77
2022/07/05 06:38:15;;;;;;;2.47;1.50;;;;;;;;;;4932126;29;20493;-79
2022/07/05 06:40:42;;;;;;;2.23;1.50;;;;;;;;;;4929067;29;20432;-79
2022/07/05 06:43:09;;;;;;;5.50;1.53;;;;;;;;;;4932497;29;20439;-78
2022/07/05 06:45:35;;;;;;;1.40;1.30;;;;;;;;;;4914566;29;20771;-78
2022/07/05 06:48:03;;;;;;;0.67;0.67;;;;;;;;;;4933821;29;20499;-77
2022/07/05 06:50:30;;;;;;;1.20;1.20;;;;;;;;;;4934032;29;20431;-81
2022/07/05 06:52:56;;;;;;;2.40;1.47;;;;;;;;;;4933533;29;20454;-77
2022/07/05 06:55:22;;;;;;;0.90;0.90;;;;;;;;;;4932446;29;20950;-80
2022/07/05 06:57:48;;;;;;;1.80;1.03;;;;;;;;;;4930285;29;20502;-74
2022/07/05 07:00:15;;;;;;;9.20;1.07;;;;;;;;;;4933991;29;20420;-74
2022/07/05 07:02:41;;;;;;;0.87;0.70;;;;;;;;;;4934308;29;20442;-76
2022/07/05 07:05:07;;;;;;;1.43;1.00;;;;;;;;;;4932899;29;20439;-75
2022/07/05 07:10:19;;;;;;;2.10;1.27;;;;;;;;;;4930288;29;20434;-76
2022/07/05 07:12:45;;;;;;;3.53;0.80;;;;;;;;;;4933130;29;20932;-74
2022/07/05 07:15:11;;;;;;;0.90;0.90;;;;;;;;;;4933187;29;20435;-76
2022/07/05 07:17:37;;;;;;;2.10;0.90;;;;;;;;;;4931938;29;20298;-75
2022/07/05 07:20:03;;;;;;;3.03;1.33;;;;;;;;;;4930163;29;20473;-74
2022/07/05 07:22:29;;;;;;;6.33;1.50;;;;;;;;;;4929229;29;20490;-73
2022/07/05 07:24:55;;;;;;;2.53;1.30;;;;;;;;;;4930005;29;20463;-73
2022/07/05 07:27:21;;;;;;;1.00;1.00;;;;;;;;;;4933470;29;20431;-73
2022/07/05 07:29:47;;;;;;;1.30;1.30;;;;;;;;;;4928994;29;20945;-73
2022/07/05 07:32:13;;;;;;;1.10;1.10;;;;;;;;;;4933000;29;20714;-74
2022/07/05 07:34:39;;;;;;;0.77;0.77;;;;;;;;;;4930347;29;20428;-73
2022/07/05 07:37:05;;;;;;;2.23;1.07;;;;;;;;;;4933284;29;20491;-73
2022/07/05 07:39:32;;;;;;;3.00;2.90;;;;;;;;;;4933022;29;21033;-73
2022/07/05 07:41:58;;;;;;;2.20;0.80;;;;;;;;;;4933317;29;20432;-73
2022/07/05 07:44:24;;;;;;;1.20;1.20;;;;;;;;;;4931491;29;20578;-73
2022/07/05 07:46:50;;;;;;;1.13;0.80;;;;;;;;;;4930271;29;20448;-73
2022/07/05 07:49:16;;;;;;;1.17;1.17;;;;;;;;;;4931961;29;20459;-73
2022/07/05 07:51:42;;;;;;;6.00;0.90;;;;;;;;;;4931863;29;20446;-73
2022/07/05 07:54:08;;;;;;;1.40;1.10;;;;;;;;;;4930341;29;20439;-73
2022/07/05 07:56:34;;;;;;;1.17;0.77;;;;;;;;;;4929743;29;20503;-73
2022/07/05 07:59:00;;;;;;;1.10;1.00;;;;;;;;;;4932978;29;20788;-73
2022/07/05 08:01:26;;;;;;;3.50;1.00;;;;;;;;;;4931744;29;20915;-73
2022/07/05 08:03:53;;;;;;;1.70;1.00;;;;;;;;;;4931761;29;20440;-73
2022/07/05 08:06:19;;;;;;;0.97;0.97;;;;;;;;;;4932340;29;20798;-73
2022/07/05 08:08:45;;;;;;;1.70;1.23;;;;;;;;;;4931251;29;20447;-73
2022/07/05 08:11:12;;;;;;;2.40;1.17;;;;;;;;;;4932797;29;21011;-73
2022/07/05 08:13:42;;;;;;;4.30;1.23;;;;;;;;;;4932289;29;20428;-73
2022/07/05 08:16:08;;;;;;;1.27;1.17;;;;;;;;;;4931466;29;20784;-73
2022/07/05 08:21:31;;;;;;;1.00;1.00;;;;;;;;;;4932487;29;20780;-73
2022/07/05 08:23:57;;;;;;;2.17;1.17;;;;;;;;;;4930197;29;20432;-72
2022/07/05 08:26:23;;;;;;;0.97;0.93;;;;;;;;;;4932012;29;20467;-71
2022/07/05 08:28:49;;;;;;;1.23;1.23;;;;;;;;;;4928992;29;20436;-72
2022/07/05 08:31:15;;;;;;;3.60;0.97;;;;;;;;;;4930855;29;20431;-72
2022/07/05 08:33:41;;;;;;;4.43;1.07;;;;;;;;;;4931267;29;20459;-71
2022/07/05 08:36:07;;;;;;;2.17;1.03;;;;;;;;;;4927741;29;21859;-72
2022/07/05 08:38:33;;;;;;;1.00;1.00;;;;;;;;;;4929556;29;20498;-72
2022/07/05 08:40:59;;;;;;;2.73;0.80;;;;;;;;;;4931704;29;20440;-71
2022/07/05 08:43:26;;;;;;;1.10;1.10;;;;;;;;;;4931167;29;20552;-71
2022/07/05 08:45:57;;;;;;;0.90;0.90;;;;;;;;;;4930066;29;20475;-71
2022/07/05 08:48:24;;;;;;;1.10;1.10;;;;;;;;;;4932541;29;20438;-71
2022/07/05 08:50:51;;;;;;;1.97;1.40;;;;;;;;;;4932159;29;20420;-72
2022/07/05 08:53:21;;;;;;;1.73;1.53;;;;;;;;;;4928222;29;20450;-73
2022/07/05 08:55:47;;;;;;;1.27;1.00;;;;;;;;;;4930483;29;20463;-72
2022/07/05 08:58:13;;;;;;;1.33;1.10;;;;;;;;;;4930793;29;20541;-71
2022/07/05 09:00:43;;;;;;;1.70;1.00;;;;;;;;;;4931051;29;20448;-71
2022/07/05 09:03:09;;;;;;;1.40;1.30;;;;;;;;;;4929189;29;20447;-72
2022/07/05 09:05:39;;;;;;;0.80;0.80;;;;;;;;;;4930155;29;20435;-72
2022/07/05 09:08:07;;;;;;;1.47;0.70;;;;;;;;;;4931538;29;20479;-72
2022/07/05 09:10:33;;;;;;;0.73;0.73;;;;;;;;;;4928943;29;20456;-72
2022/07/05 09:12:59;;;;;;;1.63;0.93;;;;;;;;;;4930831;29;20440;-74
2022/07/05 09:15:25;;;;;;;1.27;1.00;;;;;;;;;;4930477;29;20527;-76
2022/07/05 09:17:51;;;;;;;1.90;1.10;;;;;;;;;;4931128;29;20227;-72
2022/07/05 09:20:18;;;;;;;1.20;1.10;;;;;;;;;;4930043;29;20448;-71
2022/07/05 09:22:52;;;;;;;1.33;1.23;;;;;;;;;;4935932;29;20432;-71
2022/07/05 09:25:19;;;;;;;1.23;0.90;;;;;;;;;;4931884;29;20490;-71
2022/07/05 09:27:48;;;;;;;1.20;1.10;;;;;;;;;;4929377;29;20451;-71
2022/07/05 09:30:24;;;;;;;1.03;1.03;;;;;;;;;;4933032;29;20934;-72
2022/07/05 09:33:03;;;;;;;5.63;1.30;;;;;;;;;;4932075;29;20799;-71
2022/07/05 09:35:29;;;;;;;1.57;1.47;;;;;;;;;;4932145;29;20755;-72
2022/07/05 09:37:55;;;;;;;1.60;1.30;;;;;;;;;;4933596;29;20494;-72
2022/07/05 09:40:21;;;;;;;0.93;0.93;;;;;;;;;;4932462;29;20435;-73
2022/07/05 09:42:47;;;;;;;1.07;1.07;;;;;;;;;;4935210;29;21038;-71
2022/07/05 09:45:22;;;;;;;8.73;1.10;;;;;;;;;;4932488;29;20440;-71
2022/07/05 09:47:48;;;;;;;1.20;0.90;;;;;;;;;;4934943;29;20439;-72
2022/07/05 09:50:13;;;;;;;1.00;1.00;;;;;;;;;;4932243;29;20829;-71
2022/07/05 09:52:40;;;;;;;5.43;1.03;;;;;;;;;;4934218;29;20451;-75
2022/07/05 09:55:11;;;;;;;0.97;0.97;;;;;;;;;;4934392;29;20916;-72
2022/07/05 09:57:39;;;;;;;1.00;0.90;;;;;;;;;;4934615;29;20971;-72
2022/07/05 10:00:06;;;;;;;1.27;1.27;;;;;;;;;;4933458;29;20833;-71
2022/07/05 10:02:38;;;;;;;2.43;1.23;;;;;;;;;;4935488;29;20432;-74
2022/07/05 10:05:11;;;;;;;1.33;1.00;;;;;;;;;;4932306;29;20435;-71
2022/07/05 10:07:40;;;;;;;2.10;0.93;;;;;;;;;;4934646;29;20951;-72
2022/07/05 10:10:06;;;;;;;2.60;1.00;;;;;;;;;;4931475;29;20570;-72
2022/07/05 10:12:34;;;;;;;5.23;1.47;;;;;;;;;;4933945;29;20781;-72
2022/07/05 10:15:01;;;;;;;1.60;0.87;;;;;;;;;;4934320;29;20423;-75
2022/07/05 10:17:27;;;;;;;2.07;1.07;;;;;;;;;;4930813;29;20489;-71
2022/07/05 10:19:55;;;;;;;1.67;1.30;;;;;;;;;;4932314;29;20937;-71
2022/07/05 10:22:20;;;;;;;1.53;0.87;;;;;;;;;;4935080;29;20422;-72
2022/07/05 10:24:47;;;;;;;1.90;1.03;;;;;;;;;;4934473;29;20526;-71
2022/07/05 10:27:14;;;;;;;0.70;0.70;;;;;;;;;;4933219;29;20199;-71
2022/07/05 10:29:41;;;;;;;0.80;0.80;;;;;;;;;;4932375;29;20825;-72
2022/07/05 10:32:09;;;;;;;0.97;0.97;;;;;;;;;;4934085;29;20929;-72
2022/07/05 10:34:35;;;;;;;2.60;1.60;;;;;;;;;;4932805;29;20940;-72
2022/07/05 10:37:01;;;;;;;23.17;12.70;;;;;;;;;;4932029;29;21014;-72
2022/07/05 10:39:28;;;;;;;4.00;3.47;;;;;;;;;;4929824;29;20502;-77
2022/07/05 10:41:54;;;;;;;1.63;1.10;;;;;;;;;;4930875;29;20523;-72
2022/07/05 10:44:34;;;;;;;1.10;1.10;;;;;;;;;;4930780;29;20432;-71
2022/07/05 10:47:10;;;;;;;1.17;1.17;;;;;;;;;;4933170;29;20439;-71
2022/07/05 10:49:37;;;;;;;1.13;1.13;;;;;;;;;;4934087;29;20445;-71
2022/07/05 10:52:03;;;;;;;8.50;1.00;;;;;;;;;;4928761;29;20484;-72
2022/07/05 10:54:29;;;;;;;1.27;1.10;;;;;;;;;;4933087;29;20432;-72
2022/07/05 10:57:14;;;;;;;1.53;0.80;;;;;;;;;;4933914;29;20478;-75
2022/07/05 10:59:58;;;;;;;1.37;0.70;;;;;;;;;;4932442;29;20512;-72
2022/07/05 11:02:24;;;;;;;1.90;0.73;;;;;;;;;;4930446;29;20591;-72
2022/07/05 11:04:55;;;;;;;0.93;0.93;;;;;;;;;;4932207;29;20502;-72
2022/07/05 11:07:53;;;;;;;1.20;0.70;;;;;;;;;;4932832;29;20423;-72
2022/07/05 11:10:19;;;;;;;2.20;0.90;;;;;;;;;;4931492;29;20948;-72
2022/07/05 11:12:45;;;;;;;0.77;0.77;;;;;;;;;;4930629;29;20683;-73
2022/07/05 11:15:11;;;;;;;0.60;0.60;;;;;;;;;;4933259;29;20428;-73
2022/07/05 11:17:37;;;;;;;0.77;0.77;;;;;;;;;;4932562;29;21059;-72
2022/07/05 11:20:26;;;;;;;1.60;1.10;;;;;;;;;;4931230;29;20420;-73
2022/07/05 11:23:05;;;;;;;1.00;0.90;;;;;;;;;;4930404;29;20432;-72
2022/07/05 11:25:32;;;;;;;1.60;0.90;;;;;;;;;;4931603;29;20491;-72
2022/07/05 11:28:05;;;;;;;1.27;0.63;;;;;;;;;;4931949;29;20807;-72
2022/07/05 11:30:44;;;;;;;1.23;0.60;;;;;;;;;;4932828;29;20461;-71
2022/07/05 11:33:30;;;;;;;1.13;0.83;;;;;;;;;;4931176;29;20427;-72
2022/07/05 11:35:59;;;;;;;0.70;0.70;;;;;;;;;;4928702;29;20429;-72
2022/07/05 11:38:26;;;;;;;0.90;0.90;;;;;;;;;;4932659;29;20574;-72
2022/07/05 11:40:53;;;;;;;2.60;1.70;;;;;;;;;;4930333;29;20811;-72
2022/07/05 11:43:29;;;;;;;1.00;1.00;;;;;;;;;;4928904;29;20956;-72
2022/07/05 11:45:57;;;;;;;0.80;0.80;;;;;;;;;;4931220;29;20512;-73
2022/07/05 11:48:24;;;;;;;3.03;0.90;;;;;;;;;;4932214;29;20511;-72
2022/07/05 11:50:50;;;;;;;1.10;1.10;;;;;;;;;;4931706;29;20861;-72
2022/07/05 11:53:26;;;;;;;0.90;0.90;;;;;;;;;;4930337;29;20439;-72
2022/07/05 11:55:54;;;;;;;0.77;0.77;;;;;;;;;;4931825;29;20435;-73
2022/07/05 11:58:20;;;;;;;0.80;0.80;;;;;;;;;;4927891;29;20502;-79
2022/07/05 12:00:55;;;;;;;1.33;0.70;;;;;;;;;;4925113;29;20807;-71
2022/07/05 12:03:21;;;;;;;4.00;0.90;;;;;;;;;;4927429;29;20574;-72
2022/07/05 12:05:47;;;;;;;1.00;0.83;;;;;;;;;;4929000;29;20530;-72
2022/07/05 12:08:19;;;;;;;0.87;0.87;;;;;;;;;;4929186;29;20424;-72
2022/07/05 12:13:49;;;;;;;2.03;0.57;;;;;;;;;;4932701;29;20411;-72
2022/07/05 12:16:15;;;;;;;3.67;0.73;;;;;;;;;;4930121;29;20440;-72
2022/07/05 12:18:48;;;;;;;1.07;1.07;;;;;;;;;;4930820;29;21068;-72
2022/07/05 12:21:17;;;;;;;0.87;0.87;;;;;;;;;;4929091;29;21100;-73
2022/07/05 12:23:44;;;;;;;1.97;0.93;;;;;;;;;;4931192;29;20458;-72
2022/07/05 12:26:10;;;;;;;0.90;0.90;;;;;;;;;;4928838;29;20440;-72
2022/07/05 12:28:37;;;;;;;0.77;0.63;;;;;;;;;;4930696;29;20822;-72
2022/07/05 12:31:22;;;;;;;0.93;0.90;;;;;;;;;;4931956;29;20442;-72
2022/07/05 12:33:49;;;;;;;0.70;0.70;;;;;;;;;;4928514;29;20443;-73
2022/07/05 12:36:16;;;;;;;5.10;0.60;;;;;;;;;;4923193;29;20432;-72
2022/07/05 12:38:43;;;;;;;0.80;0.80;;;;;;;;;;4914362;29;20503;-71
2022/07/05 12:41:09;;;;;;;7.53;1.10;;;;;;;;;;4926543;29;20429;-72
2022/07/05 12:43:54;;;;;;;1.97;1.20;;;;;;;;;;4929598;29;20518;-72
2022/07/05 12:46:20;;;;;;;0.90;0.90;;;;;;;;;;4931320;29;20434;-72
2022/07/05 12:48:51;;;;;;;0.77;0.77;;;;;;;;;;4928284;29;20511;-72
2022/07/05 12:51:31;;;;;;;0.60;0.60;;;;;;;;;;4931680;29;20437;-73
2022/07/05 12:59:31;;;;;;;1.23;0.60;;;;;;;;;;4935901;29;20984;-72
2022/07/05 13:01:57;;;;;;;1.10;1.03;;;;;;;;;;4934896;29;20424;-72
2022/07/05 13:04:23;;;;;;;0.70;0.70;;;;;;;;;;4935488;29;20424;-72
2022/07/05 13:06:55;;;;;;;0.70;0.70;;;;;;;;;;4933230;29;20443;-72
2022/07/05 13:09:32;;;;;;;1.27;1.27;;;;;;;;;;4932651;29;20212;-72
2022/07/05 13:12:05;;;;;;;1.33;0.40;;;;;;;;;;4933122;29;20438;-72
2022/07/05 13:14:31;;;;;;;0.60;0.60;;;;;;;;;;4935347;29;20955;-73
2022/07/05 13:16:57;;;;;;;2.40;0.57;;;;;;;;;;4933306;29;20469;-72
2022/07/05 13:19:23;;;;;;;0.83;0.83;;;;;;;;;;4935081;29;20446;-72
2022/07/05 13:21:49;;;;;;;3.20;1.20;;;;;;;;;;4934465;29;20436;-72
2022/07/05 13:24:15;;;;;;;4.73;0.70;;;;;;;;;;4935293;29;20192;-72
2022/07/05 13:26:40;;;;;;;0.70;0.70;;;;;;;;;;4935570;29;20193;-72
2022/07/05 13:29:06;;;;;;;9.53;1.53;;;;;;;;;;4934514;29;20479;-71
2022/07/05 13:31:34;;;;;;;3.83;2.20;;;;;;;;;;4931746;29;20940;-71
2022/07/05 13:34:00;;;;;;;0.60;0.60;;;;;;;;;;4930620;29;20440;-73
2022/07/05 13:36:27;;;;;;;0.97;0.60;;;;;;;;;;4934892;29;20427;-72
2022/07/05 13:38:53;;;;;;;1.93;0.60;;;;;;;;;;4934000;29;20494;-72
2022/07/05 13:41:19;;;;;;;0.80;0.80;;;;;;;;;;4933731;29;20561;-72
2022/07/05 13:43:45;;;;;;;0.50;0.50;;;;;;;;;;4935444;29;20434;-72
2022/07/05 13:46:12;;;;;;;0.70;0.70;;;;;;;;;;4934886;29;20424;-72
2022/07/05 13:48:38;;;;;;;0.90;0.90;;;;;;;;;;4934875;29;20511;-71
2022/07/05 13:51:04;;;;;;;1.70;1.37;;;;;;;;;;4935268;29;20431;-72
2022/07/05 13:53:30;;;;;;;1.80;0.70;;;;;;;;;;4922197;29;20446;-72
2022/07/05 13:55:56;;;;;;;0.77;0.77;;;;;;;;;;4931225;29;20440;-72
2022/07/05 13:58:22;;;;;;;2.73;0.80;;;;;;;;;;4929944;29;20575;-73
2022/07/05 14:00:48;;;;;;;2.13;0.63;;;;;;;;;;4931781;29;20243;-72
2022/07/05 14:03:15;;;;;;;0.83;0.83;;;;;;;;;;4931800;29;20446;-72
2022/07/05 14:05:41;;;;;;;4.10;0.90;;;;;;;;;;4929430;29;20443;-74
2022/07/05 14:08:07;;;;;;;1.40;0.80;;;;;;;;;;4934572;29;20420;-72
2022/07/05 14:10:33;;;;;;;3.07;0.70;;;;;;;;;;4931041;29;20515;-73
2022/07/05 14:12:59;;;;;;;0.80;0.80;;;;;;;;;;4930773;29;20688;-73
2022/07/05 14:15:25;;;;;;;3.93;0.70;;;;;;;;;;4930530;29;20775;-72
2022/07/05 14:17:51;;;;;;;0.83;0.83;;;;;;;;;;4934666;29;20636;-73
2022/07/05 14:20:17;;;;;;;1.33;0.97;;;;;;;;;;4931367;29;20218;-72
2022/07/05 14:22:43;;;;;;;0.83;0.83;;;;;;;;;;4931755;29;20227;-73
2022/07/05 14:25:09;;;;;;;2.10;2.10;;;;;;;;;;4930969;29;20223;-72
2022/07/05 14:27:35;;;;;;;2.07;1.30;;;;;;;;;;4928552;29;20451;-72
2022/07/05 14:30:02;;;;;;;0.70;0.70;;;;;;;;;;4928738;29;20444;-72
2022/07/05 14:32:28;;;;;;;1.83;1.00;;;;;;;;;;4929477;29;20479;-72
2022/07/05 14:34:54;;;;;;;1.27;1.27;;;;;;;;;;4930043;29;20969;-72
2022/07/05 14:37:22;;;;;;;0.90;0.90;;;;;;;;;;4928440;29;20480;-72
2022/07/05 14:39:49;;;;;;;1.37;0.70;;;;;;;;;;4932213;29;20204;-72
2022/07/05 14:42:15;;;;;;;1.27;1.27;;;;;;;;;;4931459;29;20797;-72
2022/07/05 14:44:41;;;;;;;1.90;0.70;;;;;;;;;;4932283;29;21111;-72
2022/07/05 14:47:07;;;;;;;1.20;1.20;;;;;;;;;;4930950;29;20435;-72
2022/07/05 14:49:33;;;;;;;0.73;0.70;;;;;;;;;;4932833;29;20955;-72
2022/07/05 14:51:59;;;;;;;0.53;0.53;;;;;;;;;;4928185;29;20444;-74
2022/07/05 14:54:25;;;;;;;1.40;0.90;;;;;;;;;;4930629;29;20203;-72
2022/07/05 14:56:51;;;;;;;2.03;0.87;;;;;;;;;;4931956;29;20440;-72